createdAt,value
2023-01-19T00:00:39.795Z,15.10
2023-01-19T00:03:15.757Z,14.00
2023-01-19T00:05:44.038Z,12.88
2023-01-19T00:08:17.514Z,13.75
2023-01-19T00:10:49.308Z,13.37
2023-01-19T00:13:16.385Z,12.98
2023-01-19T00:15:43.732Z,13.18
2023-01-19T00:18:11.098Z,13.15
2023-01-19T00:20:39.186Z,15.25
2023-01-19T00:23:07.957Z,13.33
2023-01-19T00:25:36.165Z,11.27
2023-01-19T00:28:03.252Z,12.98
2023-01-19T00:30:30.447Z,13.65
2023-01-19T00:32:57.800Z,11.95
2023-01-19T00:35:25.562Z,12.53
2023-01-19T00:37:52.663Z,13.05
2023-01-19T00:40:19.740Z,12.73
2023-01-19T00:42:48.493Z,14.73
2023-01-19T00:45:18.739Z,11.75
2023-01-19T00:47:46.770Z,13.40
2023-01-19T00:50:16.725Z,11.02
2023-01-19T00:52:44.443Z,11.40
2023-01-19T00:55:13.663Z,11.38
2023-01-19T00:57:41.192Z,9.60
2023-01-19T01:00:11.682Z,10.70
2023-01-19T01:02:40.566Z,12.32
2023-01-19T01:05:08.817Z,12.68
2023-01-19T01:07:44.596Z,14.90
2023-01-19T01:10:17.941Z,11.63
2023-01-19T01:12:56.427Z,12.23
2023-01-19T01:15:27.625Z,10.95
2023-01-19T01:17:55.849Z,10.77
2023-01-19T01:20:27.941Z,12.60
2023-01-19T01:22:56.594Z,11.15
2023-01-19T01:25:25.297Z,12.23
2023-01-19T01:27:53.022Z,10.00
2023-01-19T01:30:20.548Z,11.32
2023-01-19T01:32:47.903Z,13.45
2023-01-19T01:35:15.611Z,11.73
2023-01-19T01:37:43.024Z,14.17
2023-01-19T01:40:15.093Z,12.50
2023-01-19T01:42:42.857Z,8.35
2023-01-19T01:45:29.230Z,10.00
2023-01-19T01:48:27.011Z,13.07
2023-01-19T01:51:16.710Z,11.83
2023-01-19T01:53:45.899Z,10.45
2023-01-19T01:56:16.195Z,8.27
2023-01-19T01:58:43.679Z,12.32
2023-01-19T02:01:29.776Z,10.18
2023-01-19T02:03:58.922Z,10.07
2023-01-19T02:06:26.487Z,11.48
2023-01-19T02:09:27.755Z,9.27
2023-01-19T02:12:13.615Z,14.95
2023-01-19T02:14:40.824Z,8.07
2023-01-19T02:17:07.962Z,8.30
2023-01-19T02:19:42.044Z,9.52
2023-01-19T02:22:35.816Z,9.57
2023-01-19T02:25:06.336Z,10.27
2023-01-19T02:27:33.934Z,11.10
2023-01-19T02:30:03.628Z,11.03
2023-01-19T02:32:31.070Z,8.48
2023-01-19T02:34:58.305Z,9.57
2023-01-19T02:37:28.470Z,9.60
2023-01-19T02:39:58.741Z,7.80
2023-01-19T02:42:29.463Z,9.03
2023-01-19T02:44:57.318Z,8.60
2023-01-19T02:47:24.697Z,7.68
2023-01-19T02:49:58.785Z,7.10
2023-01-19T02:52:27.001Z,10.30
2023-01-19T02:55:18.122Z,13.10
2023-01-19T02:58:15.016Z,9.32
2023-01-19T03:00:52.488Z,7.43
2023-01-19T03:03:29.276Z,11.20
2023-01-19T03:06:06.084Z,6.07
2023-01-19T03:09:01.037Z,5.80
2023-01-19T03:11:33.514Z,5.38
2023-01-19T03:14:11.477Z,8.73
2023-01-19T03:16:45.409Z,8.65
2023-01-19T03:19:15.042Z,9.40
2023-01-19T03:21:47.198Z,8.63
2023-01-19T03:24:15.532Z,11.32
2023-01-19T03:26:45.878Z,8.20
2023-01-19T03:29:14.091Z,9.23
2023-01-19T03:31:44.596Z,8.75
2023-01-19T03:34:13.510Z,9.40
2023-01-19T03:36:42.078Z,7.43
2023-01-19T03:39:10.189Z,9.15
2023-01-19T03:41:38.432Z,9.30
2023-01-19T03:44:06.236Z,11.73
2023-01-19T03:46:33.874Z,6.37
2023-01-19T03:49:00.984Z,6.82
2023-01-19T03:51:28.084Z,6.63
2023-01-19T03:53:55.140Z,6.22
2023-01-19T03:56:24.471Z,9.13
2023-01-19T03:58:51.985Z,6.63
2023-01-19T04:01:23.027Z,6.43
2023-01-19T04:03:53.523Z,7.50
2023-01-19T04:06:21.387Z,7.10
2023-01-19T04:08:49.629Z,8.70
2023-01-19T04:11:16.792Z,5.33
2023-01-19T04:13:44.713Z,7.43
2023-01-19T04:16:11.871Z,6.07
2023-01-19T04:18:39.199Z,9.95
2023-01-19T04:21:07.433Z,6.45
2023-01-19T04:23:35.015Z,4.73
2023-01-19T04:26:04.367Z,6.80
2023-01-19T04:28:32.461Z,7.18
2023-01-19T04:30:59.769Z,6.82
2023-01-19T04:33:27.818Z,9.05
2023-01-19T04:35:56.029Z,6.73
2023-01-19T04:38:24.041Z,10.73
2023-01-19T04:40:52.777Z,8.73
2023-01-19T04:43:20.524Z,6.28
2023-01-19T04:45:47.914Z,8.30
2023-01-19T04:48:15.737Z,7.70
2023-01-19T04:50:42.837Z,6.50
2023-01-19T04:53:10.924Z,7.32
2023-01-19T04:55:38.790Z,6.30
2023-01-19T04:58:05.885Z,8.93
2023-01-19T05:00:33.584Z,5.50
2023-01-19T05:03:01.662Z,7.80
2023-01-19T05:05:29.470Z,5.22
2023-01-19T05:07:56.525Z,8.25
2023-01-19T05:10:23.878Z,6.30
2023-01-19T05:12:51.373Z,9.13
2023-01-19T05:15:18.501Z,7.90
2023-01-19T05:17:46.218Z,7.85
2023-01-19T05:20:16.047Z,5.22
2023-01-19T05:22:48.833Z,6.80
2023-01-19T05:25:15.982Z,8.83
2023-01-19T05:27:43.375Z,7.10
2023-01-19T05:30:11.535Z,10.10
2023-01-19T05:32:38.613Z,5.80
2023-01-19T05:35:06.047Z,7.05
2023-01-19T05:37:33.188Z,8.90
2023-01-19T05:40:00.213Z,9.45
2023-01-19T05:42:27.327Z,5.25
2023-01-19T05:44:54.417Z,7.45
2023-01-19T05:47:21.559Z,7.20
2023-01-19T05:49:48.595Z,8.00
2023-01-19T05:52:15.667Z,6.20
2023-01-19T05:54:42.850Z,6.75
2023-01-19T05:57:10.688Z,7.75
2023-01-19T05:59:37.861Z,7.70
2023-01-19T06:02:04.994Z,7.10
2023-01-19T06:04:34.232Z,8.02
2023-01-19T06:07:02.366Z,6.13
2023-01-19T06:09:29.631Z,6.10
2023-01-19T06:11:57.916Z,10.52
2023-01-19T06:14:26.215Z,8.83
2023-01-19T06:16:53.411Z,9.07
2023-01-19T06:19:20.790Z,8.50
2023-01-19T06:21:49.813Z,8.85
2023-01-19T06:24:16.944Z,8.07
2023-01-19T06:26:44.010Z,11.17
2023-01-19T06:29:12.198Z,10.52
2023-01-19T06:31:39.448Z,10.63
2023-01-19T06:34:06.687Z,8.20
2023-01-19T06:36:33.876Z,13.80
2023-01-19T06:39:03.593Z,8.20
2023-01-19T06:41:30.656Z,10.98
2023-01-19T06:43:57.725Z,8.52
2023-01-19T06:46:25.138Z,10.07
2023-01-19T06:48:52.200Z,14.85
2023-01-19T06:51:19.315Z,12.13
2023-01-19T06:53:46.384Z,11.35
2023-01-19T06:56:13.500Z,12.25
2023-01-19T06:58:42.126Z,7.95
2023-01-19T07:01:09.788Z,9.70
2023-01-19T07:03:37.987Z,7.40
2023-01-19T07:06:06.713Z,8.10
2023-01-19T07:08:34.744Z,13.13
2023-01-19T07:11:24.733Z,11.30
2023-01-19T07:13:57.051Z,11.43
2023-01-19T07:16:24.313Z,8.87
2023-01-19T07:18:51.693Z,10.48
2023-01-19T07:21:19.165Z,10.88
2023-01-19T07:23:53.680Z,14.70
2023-01-19T07:26:21.621Z,11.32
2023-01-19T07:28:49.378Z,10.13
2023-01-19T07:31:16.743Z,11.05
2023-01-19T07:33:44.376Z,7.80
2023-01-19T07:36:11.483Z,10.90
2023-01-19T07:38:38.549Z,10.80
2023-01-19T07:41:07.306Z,8.80
2023-01-19T07:43:34.389Z,8.43
2023-01-19T07:46:03.649Z,10.25
2023-01-19T07:48:30.805Z,7.80
2023-01-19T07:51:01.400Z,9.65
2023-01-19T07:53:28.735Z,8.40
2023-01-19T07:55:56.777Z,6.78
2023-01-19T07:58:24.612Z,6.00
2023-01-19T08:00:52.328Z,8.13
2023-01-19T08:03:19.586Z,7.85
2023-01-19T08:05:50.269Z,7.13
2023-01-19T08:08:17.656Z,9.13
2023-01-19T08:10:45.135Z,9.23
2023-01-19T08:13:12.269Z,8.23
2023-01-19T08:15:39.413Z,7.90
2023-01-19T08:18:06.919Z,10.43
2023-01-19T08:20:33.963Z,13.35
2023-01-19T08:23:02.867Z,7.38
2023-01-19T08:25:35.184Z,7.82
2023-01-19T08:28:02.867Z,6.25
2023-01-19T08:30:30.351Z,6.07
2023-01-19T08:33:04.016Z,8.38
2023-01-19T08:35:33.058Z,6.70
2023-01-19T08:38:01.681Z,4.78
2023-01-19T08:40:36.268Z,3.78
2023-01-19T08:43:07.672Z,5.50
2023-01-19T08:45:48.089Z,6.32
2023-01-19T08:48:16.975Z,5.72
2023-01-19T08:50:46.522Z,13.70
2023-01-19T08:53:13.643Z,11.68
2023-01-19T08:55:40.907Z,6.07
2023-01-19T08:58:08.798Z,4.85
2023-01-19T09:00:40.294Z,9.32
2023-01-19T09:03:09.534Z,5.85
2023-01-19T09:05:39.182Z,6.80
2023-01-19T09:08:13.285Z,6.50
2023-01-19T09:10:45.891Z,5.60
2023-01-19T09:13:14.084Z,11.10
2023-01-19T09:15:41.623Z,6.28
2023-01-19T09:18:15.161Z,8.25
2023-01-19T09:20:43.787Z,16.47
2023-01-19T09:23:15.580Z,13.30
2023-01-19T09:25:44.017Z,6.30
2023-01-19T09:28:12.561Z,7.90
2023-01-19T09:30:40.730Z,6.82
2023-01-19T09:33:11.106Z,6.60
2023-01-19T09:35:39.098Z,6.82
2023-01-19T09:38:10.156Z,5.18
2023-01-19T09:40:42.251Z,8.18
2023-01-19T09:43:28.176Z,7.80
2023-01-19T09:45:58.568Z,7.70
2023-01-19T09:48:45.731Z,7.25
2023-01-19T09:51:22.988Z,5.90
2023-01-19T09:53:52.842Z,6.93
2023-01-19T09:56:20.783Z,8.20
2023-01-19T09:58:49.653Z,5.53
2023-01-19T10:01:27.585Z,7.18
2023-01-19T10:04:14.709Z,9.57
2023-01-19T10:06:42.364Z,7.53
2023-01-19T10:09:15.460Z,6.60
2023-01-19T10:11:53.467Z,11.03
2023-01-19T10:14:44.569Z,9.43
2023-01-19T10:17:32.211Z,8.65
2023-01-19T10:20:01.365Z,8.63
2023-01-19T10:22:28.769Z,9.27
2023-01-19T10:24:58.699Z,6.30
2023-01-19T10:27:30.852Z,7.68
2023-01-19T10:29:58.355Z,6.40
2023-01-19T10:32:27.450Z,6.03
2023-01-19T10:34:54.948Z,6.43
2023-01-19T10:37:27.764Z,7.33
2023-01-19T10:39:57.700Z,8.00
2023-01-19T10:42:29.080Z,5.50
2023-01-19T10:44:56.496Z,6.68
2023-01-19T10:47:30.724Z,7.78
2023-01-19T10:49:57.873Z,11.57
2023-01-19T10:52:39.716Z,5.30
2023-01-19T10:55:07.929Z,10.07
2023-01-19T10:57:38.334Z,17.70
2023-01-19T11:00:07.433Z,9.80
2023-01-19T11:02:34.604Z,10.50
2023-01-19T11:05:23.089Z,10.00
2023-01-19T11:07:50.143Z,6.85
2023-01-19T11:10:23.109Z,8.70
2023-01-19T11:13:01.523Z,8.50
2023-01-19T11:15:32.720Z,10.63
2023-01-19T11:18:00.508Z,10.23
2023-01-19T11:20:30.051Z,10.52
2023-01-19T11:23:16.299Z,9.48
2023-01-19T11:25:46.543Z,8.07
2023-01-19T11:28:19.032Z,9.87
2023-01-19T11:30:56.530Z,9.75
2023-01-19T11:33:33.357Z,14.13
2023-01-19T11:36:26.000Z,11.52
2023-01-19T11:38:55.089Z,13.90
2023-01-19T11:41:28.962Z,8.20
2023-01-19T11:44:21.228Z,9.73
2023-01-19T11:46:53.630Z,9.73
2023-01-19T11:49:38.239Z,8.75
2023-01-19T11:52:37.815Z,7.18
2023-01-19T11:55:23.312Z,8.13
2023-01-19T11:57:54.224Z,8.20
2023-01-19T12:00:28.933Z,9.82
2023-01-19T12:03:06.860Z,10.60
2023-01-19T12:05:35.159Z,10.00
2023-01-19T12:08:06.723Z,9.23
2023-01-19T12:10:38.198Z,8.68
2023-01-19T12:13:05.305Z,9.43
2023-01-19T12:15:39.080Z,11.82
2023-01-19T12:18:07.651Z,8.80
2023-01-19T12:20:40.988Z,11.27
2023-01-19T12:23:34.488Z,6.80
2023-01-19T12:26:06.733Z,9.82
2023-01-19T12:28:37.550Z,9.23
2023-01-19T12:31:05.072Z,7.53
2023-01-19T12:33:40.058Z,10.70
2023-01-19T12:36:10.298Z,10.23
2023-01-19T12:38:47.674Z,9.05
2023-01-19T12:41:38.891Z,7.07
2023-01-19T12:44:12.144Z,8.35
2023-01-19T12:47:06.530Z,9.87
2023-01-19T12:49:39.838Z,10.07
2023-01-19T12:52:20.444Z,4.75
2023-01-19T12:54:53.495Z,8.30
2023-01-19T12:57:28.332Z,7.43
2023-01-19T13:00:16.737Z,6.47
2023-01-19T13:02:46.926Z,9.93
2023-01-19T13:05:18.287Z,12.65
2023-01-19T13:08:07.862Z,8.80
2023-01-19T13:10:59.183Z,11.13
2023-01-19T13:13:32.694Z,11.73
2023-01-19T13:16:19.819Z,9.48
2023-01-19T13:18:53.516Z,11.57
2023-01-19T13:21:29.116Z,11.80
2023-01-19T13:24:01.695Z,12.27
2023-01-19T13:26:35.833Z,10.47
2023-01-19T13:29:10.567Z,10.45
2023-01-19T13:31:39.602Z,10.15
2023-01-19T13:34:15.252Z,7.63
2023-01-19T13:36:45.562Z,7.25
2023-01-19T13:39:18.404Z,10.13
2023-01-19T13:41:46.707Z,7.75
2023-01-19T13:44:36.416Z,9.30
2023-01-19T13:47:04.051Z,8.85
2023-01-19T13:49:40.599Z,8.15
2023-01-19T13:52:22.528Z,6.60
2023-01-19T13:54:50.359Z,7.90
2023-01-19T13:57:40.761Z,8.93
2023-01-19T14:00:17.002Z,7.70
2023-01-19T14:03:00.669Z,8.30
2023-01-19T14:05:43.909Z,6.23
2023-01-19T14:08:14.002Z,6.80
2023-01-19T14:10:41.991Z,5.28
2023-01-19T14:13:15.051Z,4.47
2023-01-19T14:15:42.496Z,6.82
2023-01-19T14:18:18.886Z,5.70
2023-01-19T14:21:01.830Z,3.70
2023-01-19T14:23:42.208Z,7.85
2023-01-19T14:26:56.194Z,6.30
2023-01-19T14:29:34.480Z,10.23
2023-01-19T14:32:01.424Z,6.43
2023-01-19T14:34:41.505Z,5.03
2023-01-19T14:37:29.552Z,7.10
2023-01-19T14:40:14.847Z,7.53
2023-01-19T14:42:55.047Z,6.20
2023-01-19T14:45:26.792Z,6.37
2023-01-19T14:47:55.230Z,5.15
2023-01-19T14:50:31.214Z,5.38
2023-01-19T14:53:03.444Z,7.55
2023-01-19T14:55:33.406Z,8.30
2023-01-19T14:58:00.477Z,6.50
2023-01-19T15:00:27.834Z,6.57
2023-01-19T15:02:55.044Z,7.93
2023-01-19T15:05:23.000Z,10.32
2023-01-19T15:07:50.332Z,8.23
2023-01-19T15:10:20.745Z,7.63
2023-01-19T15:12:49.095Z,4.82
2023-01-19T15:15:22.783Z,7.22
2023-01-19T15:17:50.263Z,10.23
2023-01-19T15:20:21.788Z,4.20
2023-01-19T15:22:49.431Z,4.07
2023-01-19T15:25:19.268Z,2.78
2023-01-19T15:27:47.417Z,7.53
2023-01-19T15:30:27.954Z,6.78
2023-01-19T15:32:55.139Z,10.75
2023-01-19T15:35:23.738Z,6.37
2023-01-19T15:37:51.063Z,7.60
2023-01-19T15:40:19.774Z,6.95
2023-01-19T15:42:47.209Z,10.05
2023-01-19T15:45:32.137Z,4.88
2023-01-19T15:48:04.296Z,6.00
2023-01-19T15:50:32.103Z,6.80
2023-01-19T15:52:59.440Z,9.48
2023-01-19T15:55:26.583Z,6.97
2023-01-19T15:57:53.647Z,7.60
2023-01-19T16:00:23.948Z,6.60
2023-01-19T16:02:52.114Z,7.95
2023-01-19T16:05:19.283Z,10.25
2023-01-19T16:07:46.586Z,7.97
2023-01-19T16:10:13.834Z,8.00
2023-01-19T16:12:41.044Z,5.20
2023-01-19T16:15:08.869Z,5.88
2023-01-19T16:17:36.664Z,4.65
2023-01-19T16:20:04.924Z,3.83
2023-01-19T16:22:32.213Z,7.95
2023-01-19T16:24:59.289Z,6.93
2023-01-19T16:27:27.743Z,7.28
2023-01-19T16:29:54.804Z,8.65
2023-01-19T16:32:22.034Z,8.15
2023-01-19T16:34:49.277Z,6.20
2023-01-19T16:37:16.310Z,6.63
2023-01-19T16:39:45.388Z,7.05
2023-01-19T16:42:12.614Z,6.70
2023-01-19T16:44:39.715Z,4.57
2023-01-19T16:47:06.759Z,6.95
2023-01-19T16:49:34.507Z,6.77
2023-01-19T16:52:01.822Z,7.05
2023-01-19T16:54:29.224Z,8.27
2023-01-19T16:56:57.292Z,5.07
2023-01-19T16:59:27.158Z,4.72
2023-01-19T17:01:55.083Z,6.83
2023-01-19T17:04:22.876Z,8.55
2023-01-19T17:06:50.157Z,6.18
2023-01-19T17:09:17.642Z,7.03
2023-01-19T17:11:44.922Z,6.55
2023-01-19T17:14:14.238Z,6.97
2023-01-19T17:16:41.565Z,8.52
2023-01-19T17:19:12.935Z,8.20
2023-01-19T17:21:40.187Z,8.27
2023-01-19T17:24:07.630Z,7.20
2023-01-19T17:26:34.825Z,6.93
2023-01-19T17:29:03.482Z,7.30
2023-01-19T17:31:32.106Z,7.78
2023-01-19T17:33:59.906Z,6.93
2023-01-19T17:36:28.329Z,7.53
2023-01-19T17:38:57.608Z,6.97
2023-01-19T17:41:27.536Z,5.07
2023-01-19T17:43:54.655Z,8.30
2023-01-19T17:46:24.934Z,8.48
2023-01-19T17:48:56.488Z,4.50
2023-01-19T17:51:23.755Z,9.73
2023-01-19T17:53:51.488Z,9.30
2023-01-19T17:56:22.918Z,9.07
2023-01-19T17:58:50.060Z,9.63
2023-01-19T18:01:21.026Z,8.35
2023-01-19T18:03:48.175Z,7.27
2023-01-19T18:06:15.318Z,8.32
2023-01-19T18:08:46.107Z,6.00
2023-01-19T18:11:13.853Z,6.32
2023-01-19T18:13:43.272Z,6.85
2023-01-19T18:16:12.919Z,6.53
2023-01-19T18:18:40.614Z,6.80
2023-01-19T18:21:09.595Z,8.77
2023-01-19T18:23:36.888Z,8.07
2023-01-19T18:26:06.876Z,6.60
2023-01-19T18:28:34.189Z,8.83
2023-01-19T18:31:01.773Z,8.05
2023-01-19T18:33:29.057Z,8.80
2023-01-19T18:35:56.235Z,8.52
2023-01-19T18:38:23.358Z,9.13
2023-01-19T18:41:00.592Z,9.37
2023-01-19T18:43:27.774Z,8.90
2023-01-19T18:45:55.037Z,7.93
2023-01-19T18:48:22.300Z,9.25
2023-01-19T18:50:49.862Z,8.30
2023-01-19T18:53:17.079Z,8.90
2023-01-19T18:55:54.783Z,7.40
2023-01-19T18:58:22.239Z,10.32
2023-01-19T19:00:49.722Z,12.25
2023-01-19T19:03:17.490Z,8.88
2023-01-19T19:05:44.662Z,4.87
2023-01-19T19:08:11.855Z,4.97
2023-01-19T19:10:42.032Z,10.43
2023-01-19T19:13:11.975Z,6.72
2023-01-19T19:15:39.239Z,7.28
2023-01-19T19:18:09.128Z,9.93
2023-01-19T19:20:41.442Z,8.95
2023-01-19T19:23:08.614Z,7.63
2023-01-19T19:25:35.934Z,7.25
2023-01-19T19:28:03.388Z,8.50
2023-01-19T19:30:30.988Z,9.00
2023-01-19T19:32:59.887Z,6.50
2023-01-19T19:35:27.905Z,8.77
2023-01-19T19:37:57.659Z,8.52
2023-01-19T19:40:27.702Z,10.75
2023-01-19T19:42:58.798Z,9.27
2023-01-19T19:45:29.146Z,9.98
2023-01-19T19:47:57.931Z,8.30
2023-01-19T19:50:25.784Z,11.13
2023-01-19T19:52:53.943Z,10.10
2023-01-19T19:55:24.260Z,8.67
2023-01-19T19:57:52.720Z,10.30
2023-01-19T20:00:20.237Z,9.43
2023-01-19T20:02:50.511Z,10.85
2023-01-19T20:05:17.672Z,10.30
2023-01-19T20:07:47.411Z,9.33
2023-01-19T20:10:15.187Z,11.52
2023-01-19T20:12:42.967Z,10.13
2023-01-19T20:15:11.318Z,13.23
2023-01-19T20:17:38.571Z,7.70
2023-01-19T20:20:06.279Z,14.63
2023-01-19T20:22:33.895Z,10.98
2023-01-19T20:25:01.191Z,17.05
2023-01-19T20:27:28.384Z,8.27
2023-01-19T20:29:58.166Z,11.40
2023-01-19T20:32:25.227Z,12.80
2023-01-19T20:34:52.902Z,10.07
2023-01-19T20:37:20.343Z,11.20
2023-01-19T20:39:47.423Z,12.18
2023-01-19T20:42:16.481Z,11.95
2023-01-19T20:44:43.616Z,11.80
2023-01-19T20:47:10.663Z,9.23
2023-01-19T20:49:39.660Z,9.95
2023-01-19T20:52:06.888Z,10.55
2023-01-19T20:54:34.255Z,11.15
2023-01-19T20:57:01.353Z,11.20
2023-01-19T20:59:28.532Z,12.30
2023-01-19T21:01:55.845Z,15.95
2023-01-19T21:04:23.187Z,13.10
2023-01-19T21:06:50.260Z,9.80
2023-01-19T21:09:18.550Z,12.20
2023-01-19T21:11:45.825Z,12.05
2023-01-19T21:14:12.956Z,10.45
2023-01-19T21:16:40.120Z,12.27
2023-01-19T21:19:07.473Z,13.65
2023-01-19T21:21:34.571Z,14.50
2023-01-19T21:24:02.389Z,9.15
2023-01-19T21:26:30.286Z,11.00
2023-01-19T21:28:58.745Z,11.30
2023-01-19T21:31:27.778Z,12.32
2023-01-19T21:33:55.847Z,9.90
2023-01-19T21:36:23.473Z,12.23
2023-01-19T21:38:55.455Z,11.63
2023-01-19T21:41:22.676Z,9.75
2023-01-19T21:43:49.743Z,13.27
2023-01-19T21:46:21.685Z,12.90
2023-01-19T21:48:48.775Z,13.07
2023-01-19T21:51:16.056Z,14.60
2023-01-19T21:53:43.255Z,19.20
2023-01-19T21:56:11.335Z,14.20
2023-01-19T21:58:38.631Z,12.20
2023-01-19T22:01:10.805Z,12.45
2023-01-19T22:03:38.092Z,12.85
2023-01-19T22:06:06.629Z,10.57
2023-01-19T22:08:34.048Z,11.40
2023-01-19T22:11:09.845Z,14.03
2023-01-19T22:13:38.711Z,13.75
2023-01-19T22:16:11.174Z,12.25
2023-01-19T22:18:39.820Z,12.95
2023-01-19T22:21:17.769Z,14.68
2023-01-19T22:23:48.702Z,12.93
2023-01-19T22:26:16.309Z,11.93
2023-01-19T22:28:43.367Z,13.55
2023-01-19T22:31:15.680Z,11.23
2023-01-19T22:33:43.281Z,11.77
2023-01-19T22:36:14.688Z,13.93
2023-01-19T22:38:42.523Z,10.95
2023-01-19T22:41:14.111Z,10.63
2023-01-19T22:43:41.200Z,13.27
2023-01-19T22:46:08.880Z,10.32
2023-01-19T22:48:36.118Z,10.07
2023-01-19T22:51:03.585Z,11.43
2023-01-19T22:53:31.439Z,12.30
2023-01-19T22:55:58.509Z,12.70
2023-01-19T22:58:25.584Z,12.52
2023-01-19T23:00:52.735Z,10.23
2023-01-19T23:03:19.837Z,11.52
2023-01-19T23:05:46.936Z,10.98
2023-01-19T23:08:14.001Z,12.60
2023-01-19T23:10:41.109Z,12.38
2023-01-19T23:13:08.168Z,11.67
2023-01-19T23:15:35.252Z,11.77
2023-01-19T23:18:02.531Z,11.43
2023-01-19T23:20:29.636Z,11.50
2023-01-19T23:22:56.707Z,12.88
2023-01-19T23:25:23.747Z,12.27
2023-01-19T23:27:50.857Z,13.63
2023-01-19T23:30:17.950Z,10.48
2023-01-19T23:32:49.368Z,11.25
2023-01-19T23:35:16.539Z,15.60
2023-01-19T23:37:43.660Z,12.07
2023-01-19T23:40:11.432Z,15.48
2023-01-19T23:42:38.548Z,13.88
2023-01-19T23:45:06.395Z,16.80
2023-01-19T23:47:35.402Z,14.27
2023-01-19T23:50:03.869Z,13.67
2023-01-19T23:52:31.473Z,16.45
2023-01-19T23:54:58.543Z,14.32
2023-01-19T23:57:25.644Z,18.77
2023-01-19T23:59:52.676Z,17.92
